Time;durP1;ratioP1;P1;durP2;ratioP2;P2;SDS_P1;SDS_P2;PMS_P1;PMS_P2;Temp;Humidity;BMP_temperature;BMP_pressure;BME280_temperature;BME280_humidity;BME280_pressure;Samples;Min_cycle;Max_cycle;Signal;HPM_P1;HPM_P2
2021/12/12 00:00:16;;;;;;;14.60;9.23;;;;;;;1.38;88.88;95069.03;1775691;81;21058;-72
2021/12/12 00:02:55;;;;;;;16.10;9.57;;;;;;;1.34;89.16;95078.13;1775418;80;21019;-72
2021/12/12 00:05:18;;;;;;;17.00;10.50;;;;;;;1.33;88.99;95065.97;1774818;80;21058;-73
2021/12/12 00:07:45;;;;;;;15.93;9.87;;;;;;;1.29;88.84;95069.84;1776094;81;20999;-72
2021/12/12 00:10:17;;;;;;;18.43;10.13;;;;;;;1.33;89.18;95062.06;1775644;81;21010;-72
2021/12/12 00:12:49;;;;;;;16.87;9.80;;;;;;;1.35;89.55;95065.55;1776077;81;21015;-73
2021/12/12 00:15:19;;;;;;;18.67;10.50;;;;;;;1.47;89.70;95063.05;1776134;81;21030;-72
2021/12/12 00:17:47;;;;;;;15.43;10.00;;;;;;;1.55;89.66;95058.77;1775940;80;20999;-72
2021/12/12 00:20:19;;;;;;;18.07;11.37;;;;;;;1.58;89.53;95057.93;1776080;81;21045;-72
2021/12/12 00:22:46;;;;;;;17.30;11.10;;;;;;;1.62;89.44;95058.41;1776198;80;20963;-71
2021/12/12 00:25:14;;;;;;;15.00;10.67;;;;;;;1.65;89.27;95054.52;1775984;81;20998;-72
2021/12/12 00:27:41;;;;;;;20.07;11.07;;;;;;;1.66;89.16;95049.74;1774879;80;21010;-72
2021/12/12 00:30:11;;;;;;;16.83;10.87;;;;;;;1.77;89.31;95057.20;1775735;80;21065;-72
2021/12/12 00:32:40;;;;;;;17.07;10.97;;;;;;;1.85;89.64;95058.11;1776083;81;21538;-72
2021/12/12 00:35:12;;;;;;;17.03;11.20;;;;;;;1.97;89.77;95049.52;1776024;81;20995;-72
2021/12/12 00:37:39;;;;;;;18.00;11.70;;;;;;;2.04;89.15;95055.20;1776099;81;21557;-72
2021/12/12 00:40:12;;;;;;;19.30;12.43;;;;;;;2.04;88.95;95050.41;1775756;81;20975;-72
2021/12/12 00:42:39;;;;;;;18.70;11.95;;;;;;;2.15;89.35;95048.75;1775245;80;21074;-72
2021/12/12 00:45:11;;;;;;;20.10;12.37;;;;;;;2.24;89.08;95047.91;1775463;81;21042;-72
2021/12/12 00:47:40;;;;;;;17.77;11.37;;;;;;;2.31;89.03;95045.77;1776267;81;21015;-73
2021/12/12 00:50:12;;;;;;;16.07;10.57;;;;;;;2.38;88.91;95045.80;1776144;80;21575;-73
2021/12/12 00:52:43;;;;;;;16.83;10.70;;;;;;;2.34;88.01;95047.08;1775869;80;21022;-72
2021/12/12 00:55:12;;;;;;;16.63;10.87;;;;;;;2.26;87.66;95051.39;1776263;81;21003;-73
2021/12/12 00:57:38;;;;;;;16.27;10.03;;;;;;;2.25;87.76;95049.66;1776140;81;21007;-73
2021/12/12 01:00:10;;;;;;;16.20;10.33;;;;;;;2.22;87.42;95041.41;1775577;81;21011;-73
2021/12/12 01:02:37;;;;;;;15.70;10.27;;;;;;;2.10;87.04;95040.91;1775930;80;20972;-73
2021/12/12 01:05:07;;;;;;;15.47;10.37;;;;;;;2.03;87.04;95044.78;1775895;80;21030;-72
2021/12/12 01:07:37;;;;;;;20.60;12.63;;;;;;;1.94;87.36;95043.88;1775877;80;21041;-72
2021/12/12 01:10:18;;;;;;;54.60;24.33;;;;;;;1.91;87.79;95042.53;1775773;80;21011;-72
2021/12/12 01:12:46;;;;;;;28.03;15.13;;;;;;;1.94;87.95;95045.17;1774543;81;20999;-72
2021/12/12 01:15:36;;;;;;;22.10;12.70;;;;;;;1.84;88.04;95048.58;1775909;80;21056;-72
2021/12/12 01:18:08;;;;;;;19.00;12.27;;;;;;;1.85;88.13;95050.75;1775056;80;21054;-72
2021/12/12 01:20:55;;;;;;;24.03;13.23;;;;;;;1.78;88.26;95044.63;1775659;81;21014;-72
2021/12/12 01:23:34;;;;;;;19.10;11.40;;;;;;;1.82;88.60;95042.94;1775917;81;21029;-72
2021/12/12 01:26:06;;;;;;;19.13;10.47;;;;;;;1.78;88.51;95041.16;1772782;81;21034;-72
2021/12/12 01:28:36;;;;;;;15.80;10.30;;;;;;;1.76;88.77;95036.38;1775109;81;20991;-72
2021/12/12 01:31:08;;;;;;;19.37;12.43;;;;;;;1.70;88.77;95026.81;1773583;81;21577;-73
2021/12/12 01:33:36;;;;;;;21.27;12.67;;;;;;;1.73;88.94;95027.69;1746356;82;21011;-73
2021/12/12 01:36:24;;;;;;;25.73;14.40;;;;;;;1.75;89.00;95035.95;1773388;81;21496;-73
2021/12/12 01:38:55;;;;;;;28.57;15.80;;;;;;;1.76;89.19;95023.37;1745296;82;21126;-73
2021/12/12 01:41:39;;;;;;;24.27;14.30;;;;;;;1.77;89.23;95023.39;1773580;81;21003;-73
2021/12/12 01:44:12;;;;;;;;;;;;;;;1.77;89.29;95020.79;1749178;82;21066;-73
2021/12/12 01:46:44;;;;;;;24.07;14.25;;;;;;;1.75;89.11;95019.91;1773535;80;20106;-72
2021/12/12 01:49:19;;;;;;;26.13;14.87;;;;;;;1.69;88.86;95023.34;1773258;81;21292;-73
2021/12/12 01:51:49;;;;;;;21.77;14.83;;;;;;;1.68;89.21;95017.69;1746655;82;20998;-72
2021/12/12 01:54:21;;;;;;;23.77;14.00;;;;;;;1.73;89.56;95012.52;1773487;81;21020;-72
2021/12/12 01:56:54;;;;;;;23.30;14.23;;;;;;;1.79;89.65;95009.08;1746553;82;21027;-72
2021/12/12 01:59:26;;;;;;;20.50;12.85;;;;;;;1.79;89.67;95009.08;1773842;81;21018;-72
2021/12/12 02:02:01;;;;;;;23.57;13.17;;;;;;;1.80;89.83;95002.59;1746419;82;21142;-72
2021/12/12 02:04:36;;;;;;;23.80;13.30;;;;;;;1.85;89.85;95003.48;1773387;80;21125;-72
2021/12/12 02:07:06;;;;;;;22.57;13.23;;;;;;;1.91;89.84;94997.44;1773295;81;20999;-72
2021/12/12 02:09:34;;;;;;;21.83;13.23;;;;;;;1.98;89.82;94991.84;1773236;81;21007;-72
2021/12/12 02:12:04;;;;;;;22.07;12.83;;;;;;;2.00;89.65;94996.20;1746449;82;21012;-72
2021/12/12 02:14:33;;;;;;;18.77;11.63;;;;;;;2.06;89.83;94990.14;1773759;81;20998;-70
2021/12/12 02:17:11;;;;;;;21.30;12.40;;;;;;;2.12;89.58;94990.19;1725993;82;21063;-73
2021/12/12 02:20:04;;;;;;;18.07;11.67;;;;;;;2.06;89.00;94980.59;1773863;80;21596;-73
2021/12/12 02:35:54;;;;;;;22.77;13.10;;;;;;;2.18;89.54;94968.07;1773397;81;21461;-72
2021/12/12 02:38:27;;;;;;;21.63;14.40;;;;;;;2.13;88.66;94978.90;1746182;82;21153;-72
2021/12/12 02:40:59;;;;;;;38.03;20.43;;;;;;;2.14;88.87;94976.31;1773820;80;21066;-72
2021/12/12 02:43:30;;;;;;;43.52;23.40;;;;;;;2.16;88.97;94975.86;1746814;82;21102;-72
2021/12/12 02:45:58;;;;;;;39.10;20.93;;;;;;;2.14;88.61;94965.91;1773597;81;21047;-72
2021/12/12 02:48:33;;;;;;;50.97;26.57;;;;;;;2.08;88.49;94962.40;1746294;82;21130;-72
2021/12/12 02:51:05;;;;;;;50.00;25.40;;;;;;;2.13;88.92;94960.24;1773603;81;21035;-73
2021/12/12 02:53:46;;;;;;;64.60;31.10;;;;;;;2.25;89.32;94957.27;1745693;82;21131;-72
2021/12/12 02:56:18;;;;;;;64.50;28.57;;;;;;;2.19;88.77;94954.18;1773507;80;21042;-73
2021/12/12 02:58:48;;;;;;;75.83;35.00;;;;;;;2.18;88.82;94953.76;1746572;82;21131;-72
2021/12/12 03:01:40;;;;;;;80.23;34.97;;;;;;;2.24;88.96;94962.01;1773557;81;21002;-72
2021/12/12 03:04:08;;;;;;;72.97;32.63;;;;;;;2.27;88.76;94956.80;1766311;81;21062;-73
2021/12/12 03:06:38;;;;;;;59.33;28.77;;;;;;;2.27;88.39;94958.11;1746207;82;21043;-73
2021/12/12 03:09:13;;;;;;;45.53;23.77;;;;;;;2.23;88.59;94958.55;1773828;80;21002;-73
2021/12/12 03:11:41;;;;;;;47.47;25.03;;;;;;;2.29;88.82;94953.78;1746571;82;21102;-72
2021/12/12 03:14:09;;;;;;;50.13;27.07;;;;;;;2.41;89.17;94955.13;1773726;81;21014;-72
2021/12/12 03:16:36;;;;;;;61.73;31.33;;;;;;;2.36;88.68;94951.20;1746449;82;21098;-72
2021/12/12 03:19:07;;;;;;;44.97;24.17;;;;;;;2.34;88.59;94952.95;1773496;81;21026;-72
2021/12/12 03:21:42;;;;;;;48.47;24.80;;;;;;;2.38;88.85;94956.42;1746281;82;21027;-72
2021/12/12 03:24:15;;;;;;;37.00;19.80;;;;;;;2.40;88.98;94951.23;1773886;81;20943;-71
2021/12/12 03:26:44;;;;;;;20.43;11.53;;;;;;;2.36;88.73;94942.52;1745514;82;21094;-71
2021/12/12 03:29:11;;;;;;;15.30;10.50;;;;;;;2.31;88.53;94949.45;1773492;80;21034;-72
2021/12/12 03:31:44;;;;;;;13.60;9.20;;;;;;;2.22;88.46;94948.12;1745915;82;21023;-72
2021/12/12 03:34:15;;;;;;;13.80;9.13;;;;;;;2.10;88.64;94952.43;1773419;80;21066;-72
2021/12/12 03:36:43;;;;;;;15.13;9.33;;;;;;;2.03;88.65;94949.36;1746542;82;21070;-72
2021/12/12 03:39:19;;;;;;;13.37;8.50;;;;;;;1.97;88.73;94962.36;1773426;81;21050;-72
2021/12/12 03:41:47;;;;;;;14.00;8.87;;;;;;;1.97;88.85;94957.16;1746545;82;21047;-73
2021/12/12 03:44:18;;;;;;;14.30;9.63;;;;;;;1.98;88.99;94961.92;1773373;80;21049;-72
2021/12/12 03:46:48;;;;;;;16.47;9.80;;;;;;;1.99;89.14;94959.34;1746364;82;21467;-72
2021/12/12 03:49:16;;;;;;;14.87;9.57;;;;;;;1.99;89.27;94960.64;1773679;81;21099;-72
2021/12/12 03:51:45;;;;;;;14.23;9.13;;;;;;;1.95;89.29;94961.05;1746625;82;21574;-72
2021/12/12 03:54:11;;;;;;;13.30;9.23;;;;;;;1.96;89.61;94960.61;1773553;81;21738;-73
2021/12/12 03:56:41;;;;;;;13.77;9.17;;;;;;;2.00;89.57;94956.30;1746625;82;21477;-73
2021/12/12 03:59:09;;;;;;;13.77;8.83;;;;;;;1.99;89.56;94958.05;1773623;81;21584;-73
2021/12/12 04:01:41;;;;;;;14.30;8.97;;;;;;;1.99;89.42;94950.64;1745880;82;21031;-72
2021/12/12 04:04:32;;;;;;;17.80;11.63;;;;;;;2.03;89.54;94946.77;1773725;81;21133;-72
2021/12/12 04:07:01;;;;;;;28.73;17.07;;;;;;;2.05;89.85;94950.25;1753778;81;21079;-72
2021/12/12 04:09:28;;;;;;;30.03;17.60;;;;;;;2.09;90.07;94949.41;1773255;81;21016;-72
2021/12/12 04:11:59;;;;;;;16.97;10.67;;;;;;;2.09;89.79;94955.91;1746349;82;21070;-73
2021/12/12 04:14:27;;;;;;;8.90;5.67;;;;;;;2.09;89.54;94957.21;1773782;80;21111;-73
2021/12/12 04:17:00;;;;;;;8.70;5.43;;;;;;;2.06;89.63;94952.41;1746098;82;21102;-73
2021/12/12 04:19:27;;;;;;;7.03;4.13;;;;;;;2.09;89.74;94948.51;1773828;81;20995;-73
2021/12/12 04:21:54;;;;;;;3.23;2.53;;;;;;;2.09;89.70;94942.90;1746433;82;21091;-73
2021/12/12 04:24:28;;;;;;;3.20;2.73;;;;;;;2.07;89.67;94943.76;1773299;81;21006;-73
2021/12/12 04:26:56;;;;;;;4.37;3.10;;;;;;;2.03;89.65;94945.46;1746593;82;21095;-73
2021/12/12 04:29:32;;;;;;;2.57;2.00;;;;;;;2.06;89.89;94953.27;1774105;81;21559;-73
2021/12/12 04:32:07;;;;;;;1.83;1.70;;;;;;;2.08;89.79;94947.64;1775336;80;21042;-73
2021/12/12 04:34:40;;;;;;;3.00;2.00;;;;;;;2.05;89.81;94946.34;1775788;81;21011;-72
2021/12/12 04:37:08;;;;;;;2.00;1.80;;;;;;;2.02;89.74;94948.08;1775807;81;21117;-72
2021/12/12 04:39:39;;;;;;;3.47;1.93;;;;;;;2.02;89.77;94952.84;1776446;81;21070;-73
2021/12/12 04:42:14;;;;;;;3.00;2.40;;;;;;;2.02;89.72;94955.88;1776182;81;21046;-73
2021/12/12 04:44:42;;;;;;;2.10;1.90;;;;;;;1.97;89.49;94956.30;1775644;81;21472;-72
2021/12/12 04:50:23;;;;;;;1.90;1.50;;;;;;;1.95;89.79;94953.67;1775953;81;20986;-72
2021/12/12 04:53:10;;;;;;;1.70;1.60;;;;;;;2.00;90.00;94960.20;1775410;80;21078;-72
2021/12/12 04:55:59;;;;;;;1.57;1.30;;;;;;;2.03;90.01;94959.77;1776025;81;21070;-72
2021/12/12 04:58:52;;;;;;;1.30;1.20;;;;;;;2.03;89.84;94958.91;1763443;81;20991;-71
2021/12/12 05:01:24;;;;;;;1.70;1.47;;;;;;;2.01;89.58;94961.93;1775549;80;21011;-72
2021/12/12 05:04:08;;;;;;;1.63;1.53;;;;;;;2.01;89.72;94964.53;1776094;81;21038;-73
2021/12/12 05:06:49;;;;;;;1.77;1.50;;;;;;;2.01;89.82;94959.33;1775939;81;21051;-73
2021/12/12 05:09:21;;;;;;;1.87;1.40;;;;;;;1.98;89.64;94960.63;1775649;81;21501;-72
2021/12/12 05:12:04;;;;;;;1.70;1.53;;;;;;;1.97;89.55;94960.20;1775925;81;21010;-72
2021/12/12 05:14:44;;;;;;;1.45;1.35;;;;;;;1.96;89.72;94958.00;1751104;81;21520;-72
2021/12/12 05:17:38;;;;;;;2.07;1.80;;;;;;;1.94;89.64;94957.12;1775718;81;21037;-73
2021/12/12 05:20:16;;;;;;;1.80;1.70;;;;;;;2.00;89.81;94954.56;1775633;81;21022;-72
2021/12/12 05:22:49;;;;;;;1.93;1.73;;;;;;;2.01;89.55;94959.33;1775549;80;21014;-72
2021/12/12 05:25:26;;;;;;;1.90;1.40;;;;;;;2.07;89.84;94958.94;1774861;80;21057;-72
2021/12/12 05:27:56;;;;;;;2.30;1.93;;;;;;;2.12;89.54;94958.95;1776010;81;21069;-72
2021/12/12 05:30:30;;;;;;;2.53;2.20;;;;;;;2.05;89.12;94952.84;1753988;81;21085;-72
2021/12/12 05:33:00;;;;;;;5.53;3.03;;;;;;;2.03;89.08;94957.61;1773480;81;20994;-72
2021/12/12 05:35:32;;;;;;;3.10;2.43;;;;;;;2.04;89.21;94954.13;1746575;82;20987;-72
2021/12/12 05:38:00;;;;;;;4.53;3.17;;;;;;;2.10;89.47;94952.88;1773940;81;21488;-73
2021/12/12 05:40:31;;;;;;;3.60;2.70;;;;;;;2.10;89.31;94955.03;1746473;82;21015;-72
2021/12/12 05:43:01;;;;;;;3.90;3.00;;;;;;;2.05;88.93;94960.66;1773871;81;21055;-72
2021/12/12 05:45:33;;;;;;;2.93;2.63;;;;;;;2.04;88.94;94958.93;1746622;82;20984;-73
2021/12/12 05:48:02;;;;;;;3.20;2.87;;;;;;;1.97;88.89;94961.06;1773403;81;21005;-73
2021/12/12 05:50:29;;;;;;;3.17;2.87;;;;;;;1.99;89.10;94964.55;1746698;82;21458;-73
2021/12/12 05:52:56;;;;;;;3.47;2.80;;;;;;;1.99;89.12;94964.55;1773451;81;21007;-73
2021/12/12 05:55:27;;;;;;;3.17;2.40;;;;;;;2.02;89.08;94972.80;1746155;82;21103;-73
2021/12/12 05:57:56;;;;;;;3.53;2.90;;;;;;;2.01;88.93;94969.30;1773950;81;21059;-73
2021/12/12 06:00:45;;;;;;;3.37;2.50;;;;;;;1.98;88.94;94967.99;1746431;82;21020;-73
2021/12/12 06:03:15;;;;;;;4.10;2.67;;;;;;;1.97;88.88;94968.87;1772396;81;21038;-72
2021/12/12 06:05:43;;;;;;;4.40;3.17;;;;;;;1.97;88.93;94968.00;1746711;82;21066;-73
2021/12/12 06:08:10;;;;;;;4.17;2.90;;;;;;;1.96;88.96;94971.02;1773264;81;20979;-73
2021/12/12 06:10:41;;;;;;;2.90;2.60;;;;;;;1.97;89.18;94973.21;1746521;82;20996;-72
2021/12/12 06:13:11;;;;;;;3.10;2.80;;;;;;;2.06;89.33;94975.39;1754305;81;21501;-72
2021/12/12 06:15:39;;;;;;;4.13;3.13;;;;;;;2.05;89.11;94980.17;1747377;82;21039;-72
2021/12/12 06:18:07;;;;;;;4.17;2.80;;;;;;;2.00;88.72;94970.17;1781816;80;20979;-72
2021/12/12 06:20:34;;;;;;;3.50;2.60;;;;;;;1.96;88.56;94969.71;1760590;81;21026;-72
2021/12/12 06:23:01;;;;;;;2.77;2.47;;;;;;;1.94;88.73;94972.73;1781865;80;21090;-72
2021/12/12 06:25:28;;;;;;;3.50;2.73;;;;;;;1.93;88.59;94971.87;1760147;81;21082;-72
2021/12/12 06:27:55;;;;;;;3.60;3.17;;;;;;;1.89;88.56;94974.44;1781938;80;20982;-73
2021/12/12 06:30:24;;;;;;;2.97;2.43;;;;;;;1.82;88.79;94975.30;1759684;81;21043;-73
2021/12/12 06:32:53;;;;;;;3.57;2.83;;;;;;;1.76;88.93;94971.35;1781896;80;21057;-73
2021/12/12 06:35:20;;;;;;;4.63;3.07;;;;;;;1.76;89.14;94973.52;1760271;81;20991;-73
2021/12/12 06:37:47;;;;;;;3.63;2.97;;;;;;;1.72;89.07;94979.14;1781887;80;21006;-73
2021/12/12 06:40:19;;;;;;;4.10;3.10;;;;;;;1.67;89.06;94978.25;1760133;81;21075;-73
2021/12/12 06:42:48;;;;;;;4.60;3.23;;;;;;;1.61;89.26;94975.59;1782256;80;21539;-73
2021/12/12 06:45:16;;;;;;;3.07;2.30;;;;;;;1.62;89.21;94979.95;1760153;81;21051;-73
2021/12/12 06:47:43;;;;;;;4.07;3.10;;;;;;;1.61;89.29;94983.40;1782060;80;21009;-72
2021/12/12 06:50:10;;;;;;;2.63;2.43;;;;;;;1.63;89.50;94978.22;1759983;81;21051;-72
2021/12/12 06:52:38;;;;;;;4.63;3.20;;;;;;;1.64;89.39;94978.24;1782008;80;21524;-72
2021/12/12 06:55:11;;;;;;;3.47;3.03;;;;;;;1.67;89.44;94978.69;1760451;81;21011;-72
2021/12/12 06:57:38;;;;;;;3.17;2.60;;;;;;;1.65;89.19;94977.80;1782600;80;21014;-72
2021/12/12 07:00:11;;;;;;;2.90;2.60;;;;;;;1.66;89.34;94982.12;1759869;81;20995;-72
2021/12/12 07:02:41;;;;;;;3.73;2.80;;;;;;;1.67;89.52;94987.79;1781914;80;21071;-72
2021/12/12 07:05:12;;;;;;;4.33;2.60;;;;;;;1.69;89.47;94992.14;1781760;80;20983;-72
2021/12/12 07:07:39;;;;;;;4.30;3.17;;;;;;;1.70;89.54;94989.96;1760372;81;21552;-72
2021/12/12 07:10:09;;;;;;;4.30;3.57;;;;;;;1.75;89.71;94985.23;1781908;80;21014;-73
2021/12/12 07:12:39;;;;;;;3.30;2.73;;;;;;;1.79;89.82;94989.56;1759914;81;21026;-73
2021/12/12 07:15:10;;;;;;;5.07;4.10;;;;;;;1.81;89.51;94990.02;1782637;80;21003;-73
2021/12/12 07:17:39;;;;;;;3.20;2.50;;;;;;;1.85;89.72;94988.31;1759604;81;21062;-73
2021/12/12 07:20:10;;;;;;;5.90;3.90;;;;;;;1.92;89.55;94990.95;1781981;80;21536;-73
2021/12/12 07:22:38;;;;;;;4.87;3.60;;;;;;;1.93;89.41;94982.71;1760251;81;21027;-73
2021/12/12 07:25:08;;;;;;;5.27;3.40;;;;;;;1.94;89.27;94979.23;1782227;80;21066;-73
2021/12/12 07:27:35;;;;;;;5.37;4.10;;;;;;;1.94;89.21;94984.44;1760102;81;21022;-73
2021/12/12 07:30:04;;;;;;;5.13;3.33;;;;;;;1.97;89.42;94987.52;1780444;80;21117;-73
2021/12/12 07:32:31;;;;;;;8.10;5.20;;;;;;;2.01;89.22;94985.34;1745569;81;21083;-73
2021/12/12 07:34:59;;;;;;;15.40;8.47;;;;;;;2.02;89.22;94979.30;1782056;80;21563;-72
2021/12/12 07:37:28;;;;;;;6.13;3.47;;;;;;;1.99;88.97;94984.06;1759918;81;21047;-72
2021/12/12 07:39:55;;;;;;;19.40;11.77;;;;;;;1.99;88.87;94986.66;1782316;80;20986;-72
2021/12/12 07:42:21;;;;;;;17.43;10.03;;;;;;;1.99;89.17;94990.97;1760190;81;21085;-72
2021/12/12 07:44:48;;;;;;;21.13;13.50;;;;;;;2.04;89.44;94989.25;1760362;80;21062;-72
2021/12/12 07:47:17;;;;;;;18.43;12.90;;;;;;;2.06;89.50;94987.09;1759420;81;21497;-72
2021/12/12 07:49:48;;;;;;;10.03;6.80;;;;;;;2.09;89.39;94988.84;1782081;80;21074;-72
2021/12/12 07:52:19;;;;;;;8.03;6.10;;;;;;;2.14;89.64;94989.33;1760111;81;21094;-72
2021/12/12 07:54:49;;;;;;;24.30;14.27;;;;;;;2.19;89.67;94991.06;1782079;80;20947;-72
2021/12/12 07:57:18;;;;;;;8.80;5.93;;;;;;;2.21;89.74;94991.94;1760064;81;21045;-72
2021/12/12 07:59:46;;;;;;;7.93;5.40;;;;;;;2.21;89.48;94989.34;1782008;80;21010;-73
2021/12/12 08:02:15;;;;;;;8.50;6.63;;;;;;;2.23;89.55;94990.22;1759691;81;21591;-72
2021/12/12 08:04:44;;;;;;;18.93;12.03;;;;;;;2.24;89.47;94994.55;1782144;80;21021;-72
2021/12/12 08:07:15;;;;;;;12.57;7.47;;;;;;;2.26;89.62;94988.92;1759698;81;21050;-72
2021/12/12 08:09:44;;;;;;;17.50;12.13;;;;;;;2.31;89.72;94986.77;1782277;80;20947;-72
2021/12/12 08:12:14;;;;;;;14.40;10.40;;;;;;;2.39;89.62;94993.30;1760093;81;21021;-72
2021/12/12 08:14:42;;;;;;;10.90;8.80;;;;;;;2.36;89.20;94989.39;1781831;80;21101;-72
2021/12/12 08:17:12;;;;;;;13.30;8.37;;;;;;;2.36;88.92;94993.30;1759924;81;21074;-72
2021/12/12 08:19:40;;;;;;;12.83;10.60;;;;;;;2.37;88.99;94995.91;1782160;80;21437;-72
2021/12/12 08:22:11;;;;;;;14.27;10.83;;;;;;;2.38;88.89;94996.77;1760077;81;21016;-71
2021/12/12 08:24:40;;;;;;;10.33;8.00;;;;;;;2.36;88.66;95002.41;1782360;80;21021;-72
2021/12/12 08:27:10;;;;;;;10.20;7.50;;;;;;;2.34;88.71;94997.62;1760085;81;21006;-72
2021/12/12 08:29:37;;;;;;;8.30;6.40;;;;;;;2.34;88.69;95007.63;1781985;80;20990;-72
2021/12/12 08:32:10;;;;;;;10.70;7.33;;;;;;;2.33;88.95;95003.27;1760091;81;21564;-73
2021/12/12 08:34:38;;;;;;;15.83;10.60;;;;;;;2.42;89.35;95005.05;1782093;80;20978;-72
2021/12/12 08:37:06;;;;;;;17.57;11.40;;;;;;;2.45;89.10;95010.26;1759748;81;21026;-72
2021/12/12 08:39:34;;;;;;;11.20;8.50;;;;;;;2.41;88.80;95007.63;1782138;80;21012;-72
2021/12/12 08:42:04;;;;;;;11.07;8.00;;;;;;;2.40;88.94;95004.61;1738520;81;21556;-72
2021/12/12 08:44:33;;;;;;;14.53;10.10;;;;;;;2.36;88.74;95004.56;1782612;80;20954;-72
2021/12/12 08:47:02;;;;;;;10.20;7.80;;;;;;;2.33;88.79;95009.77;1759785;81;21035;-73
2021/12/12 08:49:32;;;;;;;22.97;17.20;;;;;;;2.40;89.22;95005.47;1781932;80;20998;-73
2021/12/12 08:52:13;;;;;;;19.73;13.97;;;;;;;2.38;88.75;95009.36;1760279;81;21564;-73
2021/12/12 08:54:43;;;;;;;16.77;12.30;;;;;;;2.34;88.98;95009.33;1782346;80;20951;-72
2021/12/12 08:57:30;;;;;;;327.03;155.67;;;;;;;2.40;89.11;95008.51;1760027;81;21556;-72
2021/12/12 08:59:45;;;;;;;106.40;57.63;;;;;;;2.35;88.80;95010.66;1779834;80;20985;-72
2021/12/12 09:02:16;;;;;;;27.27;18.53;;;;;;;2.33;88.85;95007.17;1759784;81;21078;-71
2021/12/12 09:04:48;;;;;;;23.30;14.80;;;;;;;2.37;89.09;95009.37;1782206;80;21014;-71
2021/12/12 09:07:22;;;;;;;24.33;15.17;;;;;;;2.34;88.92;95008.03;1760284;81;21024;-71
2021/12/12 09:09:54;;;;;;;20.60;12.77;;;;;;;2.34;89.29;95008.03;1782075;80;21025;-72
2021/12/12 09:12:26;;;;;;;16.53;10.40;;;;;;;2.45;89.75;95006.35;1759654;80;21070;-72
2021/12/12 09:15:01;;;;;;;27.27;18.13;;;;;;;2.53;89.79;94998.12;1782235;80;20990;-72
2021/12/12 09:17:37;;;;;;;21.50;14.47;;;;;;;2.57;89.73;95000.28;1759191;81;21039;-72
2021/12/12 09:20:14;;;;;;;16.60;11.97;;;;;;;2.59;89.61;94998.12;1782063;80;21485;-72
2021/12/12 09:23:00;;;;;;;15.13;10.70;;;;;;;2.64;89.61;94998.14;1760050;81;21492;-73
2021/12/12 09:25:49;;;;;;;13.60;9.93;;;;;;;2.68;89.64;94990.78;1782077;80;21089;-73
2021/12/12 09:28:30;;;;;;;14.28;9.83;;;;;;;2.73;89.54;94991.66;1759371;81;20979;-73
2021/12/12 09:31:04;;;;;;;16.03;9.60;;;;;;;2.77;89.52;94986.00;1781832;80;21090;-73
2021/12/12 09:33:45;;;;;;;13.93;9.93;;;;;;;2.76;89.21;94987.74;1759801;81;21031;-73
2021/12/12 09:36:23;;;;;;;14.33;10.27;;;;;;;2.76;89.21;94986.44;1782290;80;21037;-73
2021/12/12 09:38:58;;;;;;;15.67;10.57;;;;;;;2.73;89.23;94986.89;1759964;81;21563;-73
2021/12/12 09:41:53;;;;;;;16.13;10.27;;;;;;;2.73;89.28;94988.19;1780825;80;21062;-72
2021/12/12 09:45:03;;;;;;;13.97;9.17;;;;;;;2.74;89.23;94989.91;1760016;81;21070;-72
2021/12/12 09:51:31;;;;;;;13.93;9.93;;;;;;;2.66;89.16;94993.81;1717982;81;21023;-72
2021/12/12 09:54:29;;;;;;;14.53;10.50;;;;;;;2.67;89.40;94994.27;1781378;80;21524;-72
2021/12/12 09:57:04;;;;;;;17.83;11.97;;;;;;;2.69;89.45;94995.55;1759955;81;21018;-72
2021/12/12 10:00:09;;;;;;;17.03;12.13;;;;;;;2.72;89.49;94991.64;1782132;80;20987;-72
2021/12/12 10:03:02;;;;;;;16.87;11.47;;;;;;;2.75;89.61;94993.84;1759683;81;21039;-64
2021/12/12 10:05:59;;;;;;;16.50;12.30;;;;;;;2.78;89.60;94995.14;1782086;80;21021;-72
2021/12/12 10:08:49;;;;;;;20.23;13.77;;;;;;;2.77;89.30;94993.82;1782055;80;20994;-72
2021/12/12 10:11:59;;;;;;;61.20;33.53;;;;;;;2.78;89.54;94996.44;1781864;80;21046;-73
2021/12/12 10:14:46;;;;;;;92.30;45.27;;;;;;;2.85;89.75;94989.92;1759501;81;20999;-73
2021/12/12 10:17:21;;;;;;;36.00;22.33;;;;;;;2.93;89.79;94992.98;1782040;80;21077;-73
2021/12/12 10:20:21;;;;;;;33.77;21.00;;;;;;;2.99;89.59;94994.72;1781410;80;21026;-72
2021/12/12 10:23:27;;;;;;;26.87;16.90;;;;;;;3.05;89.62;94997.36;1760191;81;21449;-72
2021/12/12 10:25:59;;;;;;;25.13;16.60;;;;;;;3.08;89.45;94997.79;1780654;80;21129;-72
2021/12/12 10:28:32;;;;;;;23.60;16.27;;;;;;;3.12;89.35;94993.86;1759764;81;21046;-72
2021/12/12 10:31:04;;;;;;;25.50;16.73;;;;;;;3.11;89.06;94990.83;1782278;80;21049;-72
2021/12/12 10:33:53;;;;;;;24.33;15.67;;;;;;;3.08;89.01;94997.34;1759697;81;21553;-72
2021/12/12 10:36:25;;;;;;;26.37;17.77;;;;;;;3.08;89.11;94999.09;1782240;80;20954;-72
2021/12/12 10:39:19;;;;;;;25.17;16.83;;;;;;;3.14;89.18;95006.91;1759684;81;21047;-71
2021/12/12 10:41:51;;;;;;;32.05;19.17;;;;;;;3.16;89.17;95007.78;1782062;80;21002;-72
2021/12/12 10:44:23;;;;;;;31.97;17.57;;;;;;;3.10;88.81;95009.06;1781824;80;21017;-72
2021/12/12 10:47:17;;;;;;;27.23;17.90;;;;;;;3.09;88.94;95007.33;1782452;80;21021;-72
2021/12/12 10:50:15;;;;;;;18.15;11.63;;;;;;;3.11;89.10;94999.95;1760277;81;20975;-71
2021/12/12 10:53:29;;;;;;;24.80;15.77;;;;;;;3.16;89.03;95008.64;1782433;80;20943;-72
2021/12/12 10:55:59;;;;;;;;;;;;;;;3.10;88.92;95008.66;1762403;81;21030;-72
2021/12/12 10:58:43;;;;;;;24.20;14.77;;;;;;;3.12;89.18;95008.63;1781933;80;20094;-73
2021/12/12 11:01:18;;;;;;;20.77;12.93;;;;;;;3.12;89.20;95012.09;1781653;80;21005;-72
2021/12/12 11:03:50;;;;;;;26.03;14.67;;;;;;;3.15;89.38;95019.05;1782094;80;21030;-70
2021/12/12 11:06:37;;;;;;;22.57;14.73;;;;;;;3.20;89.43;95012.10;1778966;80;21138;-73
2021/12/12 11:09:34;;;;;;;25.37;15.83;;;;;;;3.27;89.34;95017.77;1781796;80;21077;-71
2021/12/12 11:12:26;;;;;;;17.17;11.17;;;;;;;3.33;89.30;95028.65;1782438;80;20974;-72
2021/12/12 11:15:10;;;;;;;18.80;12.07;;;;;;;3.37;89.25;95025.16;1781928;80;21094;-72
2021/12/12 11:17:42;;;;;;;23.43;15.20;;;;;;;3.44;89.42;95028.20;1782020;80;20998;-72
2021/12/12 11:20:16;;;;;;;25.90;16.23;;;;;;;3.41;88.99;95026.46;1782062;80;21113;-72
2021/12/12 11:22:51;;;;;;;22.53;14.60;;;;;;;3.41;89.07;95030.38;1782317;80;20962;-72
2021/12/12 11:25:41;;;;;;;27.47;17.80;;;;;;;3.43;89.10;95027.34;1781853;80;21013;-72
2021/12/12 11:28:37;;;;;;;24.37;16.13;;;;;;;3.37;88.66;95029.06;1782142;80;21002;-72
2021/12/12 11:31:22;;;;;;;21.20;12.83;;;;;;;3.36;88.75;95034.72;1781677;80;21057;-72
2021/12/12 11:33:52;;;;;;;15.50;10.70;;;;;;;3.42;89.01;95039.06;1781797;80;20978;-73
2021/12/12 11:36:36;;;;;;;57.70;38.40;;;;;;;3.45;88.97;95039.05;1782087;80;20971;-73
2021/12/12 11:39:20;;;;;;;69.70;42.33;;;;;;;3.47;88.85;95039.48;1781571;80;21054;-73
2021/12/12 11:42:07;;;;;;;70.50;42.08;;;;;;;3.50;88.84;95041.22;1781352;80;21018;-73
2021/12/12 11:44:45;;;;;;;74.50;44.13;;;;;;;3.51;88.76;95038.20;1781835;80;21026;-73
2021/12/12 11:47:41;;;;;;;57.60;37.50;;;;;;;3.56;89.06;95049.06;1781436;80;21074;-73
2021/12/12 11:50:17;;;;;;;76.43;46.47;;;;;;;3.67;89.43;95047.74;1782136;80;21011;-72
2021/12/12 11:53:04;;;;;;;82.93;46.50;;;;;;;3.72;88.90;95046.00;1782079;80;21086;-73
2021/12/12 11:55:39;;;;;;;82.83;50.47;;;;;;;3.77;89.14;95055.13;1782212;80;21053;-72
2021/12/12 11:58:23;;;;;;;72.73;46.13;;;;;;;3.84;89.25;95049.05;1782030;80;21503;-72
2021/12/12 12:01:01;;;;;;;67.90;43.90;;;;;;;3.89;88.99;95061.64;1782132;80;21059;-72
2021/12/12 12:03:49;;;;;;;58.23;37.40;;;;;;;3.88;88.22;95059.48;1779917;80;21022;-71
2021/12/12 12:06:24;;;;;;;51.50;33.13;;;;;;;3.88;88.25;95058.17;1781996;80;20975;-72
2021/12/12 12:09:20;;;;;;;55.20;33.43;;;;;;;3.92;88.10;95054.25;1781886;80;21026;-72
2021/12/12 12:12:21;;;;;;;50.07;32.03;;;;;;;3.99;88.26;95062.50;1781941;80;21015;-72
2021/12/12 12:15:08;;;;;;;47.10;28.43;;;;;;;3.97;87.80;95066.41;1780286;80;20994;-72
2021/12/12 12:17:57;;;;;;;21.33;14.83;;;;;;;3.88;87.90;95065.11;1781815;80;21015;-72
2021/12/12 12:21:01;;;;;;;35.60;22.70;;;;;;;3.90;87.97;95068.59;1782145;80;21045;-73
2021/12/12 12:24:39;;;;;;;24.03;16.50;;;;;;;3.97;88.68;95068.16;1782087;80;21003;-74
2021/12/12 12:29:30;;;;;;;51.17;30.83;;;;;;;4.19;88.77;95065.08;1782099;80;21018;-71